sensor_id;sensor_type;location;lat;lon;timestamp;P1;durP1;ratioP1;P2;durP2;ratioP2
68229;SDS011;55048;52.220;5.160;2022-12-22T00:02:19;61.58;;;28.27;;
68229;SDS011;55048;52.220;5.160;2022-12-22T00:08:04;58.42;;;27.25;;
68229;SDS011;55048;52.220;5.160;2022-12-22T00:10:49;54.28;;;27.55;;
68229;SDS011;55048;52.220;5.160;2022-12-22T00:13:34;62.00;;;27.77;;
68229;SDS011;55048;52.220;5.160;2022-12-22T00:16:18;60.67;;;27.38;;
68229;SDS011;55048;52.220;5.160;2022-12-22T00:19:04;52.63;;;25.65;;
68229;SDS011;55048;52.220;5.160;2022-12-22T00:21:56;55.75;;;27.08;;
68229;SDS011;55048;52.220;5.160;2022-12-22T00:24:43;54.92;;;27.40;;
68229;SDS011;55048;52.220;5.160;2022-12-22T00:27:28;56.08;;;25.30;;
68229;SDS011;55048;52.220;5.160;2022-12-22T00:30:13;55.97;;;27.20;;
68229;SDS011;55048;52.220;5.160;2022-12-22T00:32:58;53.60;;;26.20;;
68229;SDS011;55048;52.220;5.160;2022-12-22T00:35:44;48.03;;;24.58;;
68229;SDS011;55048;52.220;5.160;2022-12-22T00:38:28;56.45;;;27.77;;
68229;SDS011;55048;52.220;5.160;2022-12-22T00:41:12;58.80;;;28.20;;
68229;SDS011;55048;52.220;5.160;2022-12-22T00:43:56;57.97;;;28.23;;
68229;SDS011;55048;52.220;5.160;2022-12-22T00:46:40;58.13;;;28.13;;
68229;SDS011;55048;52.220;5.160;2022-12-22T00:49:27;60.53;;;28.30;;
68229;SDS011;55048;52.220;5.160;2022-12-22T00:52:13;65.68;;;28.25;;
68229;SDS011;55048;52.220;5.160;2022-12-22T00:54:59;61.97;;;28.20;;
68229;SDS011;55048;52.220;5.160;2022-12-22T00:57:43;66.07;;;28.85;;
68229;SDS011;55048;52.220;5.160;2022-12-22T01:00:27;66.18;;;28.55;;
68229;SDS011;55048;52.220;5.160;2022-12-22T01:03:11;56.63;;;27.35;;
68229;SDS011;55048;52.220;5.160;2022-12-22T01:05:57;60.67;;;27.70;;
68229;SDS011;55048;52.220;5.160;2022-12-22T01:08:43;59.58;;;27.27;;
68229;SDS011;55048;52.220;5.160;2022-12-22T01:11:27;62.75;;;27.13;;
68229;SDS011;55048;52.220;5.160;2022-12-22T01:14:12;65.00;;;28.35;;
68229;SDS011;55048;52.220;5.160;2022-12-22T01:16:57;65.70;;;29.60;;
68229;SDS011;55048;52.220;5.160;2022-12-22T01:19:40;60.55;;;28.60;;
68229;SDS011;55048;52.220;5.160;2022-12-22T01:22:25;55.78;;;26.25;;
68229;SDS011;55048;52.220;5.160;2022-12-22T01:25:12;60.17;;;27.50;;
68229;SDS011;55048;52.220;5.160;2022-12-22T01:27:58;59.88;;;28.27;;
68229;SDS011;55048;52.220;5.160;2022-12-22T01:30:42;63.10;;;28.40;;
68229;SDS011;55048;52.220;5.160;2022-12-22T01:33:27;58.42;;;26.17;;
68229;SDS011;55048;52.220;5.160;2022-12-22T01:36:11;60.63;;;26.60;;
68229;SDS011;55048;52.220;5.160;2022-12-22T01:38:55;63.95;;;28.15;;
68229;SDS011;55048;52.220;5.160;2022-12-22T01:41:39;61.88;;;27.42;;
68229;SDS011;55048;52.220;5.160;2022-12-22T01:44:23;59.92;;;26.75;;
68229;SDS011;55048;52.220;5.160;2022-12-22T01:50:14;63.15;;;27.42;;
68229;SDS011;55048;52.220;5.160;2022-12-22T01:53:03;62.28;;;27.77;;
68229;SDS011;55048;52.220;5.160;2022-12-22T01:55:51;58.83;;;27.02;;
68229;SDS011;55048;52.220;5.160;2022-12-22T01:58:40;59.83;;;26.60;;
68229;SDS011;55048;52.220;5.160;2022-12-22T02:01:28;59.67;;;26.02;;
68229;SDS011;55048;52.220;5.160;2022-12-22T02:04:14;63.10;;;27.40;;
68229;SDS011;55048;52.220;5.160;2022-12-22T02:07:03;62.22;;;27.05;;
68229;SDS011;55048;52.220;5.160;2022-12-22T02:13:12;61.67;;;26.70;;
68229;SDS011;55048;52.220;5.160;2022-12-22T02:16:25;67.10;;;26.30;;
68229;SDS011;55048;52.220;5.160;2022-12-22T02:22:46;77.73;;;28.13;;
68229;SDS011;55048;52.220;5.160;2022-12-22T02:25:36;70.05;;;26.55;;
68229;SDS011;55048;52.220;5.160;2022-12-22T02:28:26;74.63;;;27.75;;
68229;SDS011;55048;52.220;5.160;2022-12-22T02:31:10;69.43;;;25.17;;
68229;SDS011;55048;52.220;5.160;2022-12-22T02:33:53;80.00;;;27.88;;
68229;SDS011;55048;52.220;5.160;2022-12-22T02:39:56;81.93;;;27.95;;
68229;SDS011;55048;52.220;5.160;2022-12-22T02:46:28;78.80;;;27.50;;
68229;SDS011;55048;52.220;5.160;2022-12-22T02:49:18;80.20;;;25.55;;
68229;SDS011;55048;52.220;5.160;2022-12-22T02:52:10;83.20;;;25.77;;
68229;SDS011;55048;52.220;5.160;2022-12-22T02:55:02;95.05;;;27.90;;
68229;SDS011;55048;52.220;5.160;2022-12-22T02:57:50;94.75;;;28.15;;
68229;SDS011;55048;52.220;5.160;2022-12-22T03:00:35;101.93;;;28.83;;
68229;SDS011;55048;52.220;5.160;2022-12-22T03:03:21;103.45;;;30.20;;
68229;SDS011;55048;52.220;5.160;2022-12-22T03:06:04;110.88;;;28.30;;
68229;SDS011;55048;52.220;5.160;2022-12-22T03:08:48;99.13;;;29.25;;
68229;SDS011;55048;52.220;5.160;2022-12-22T03:11:32;100.05;;;29.00;;
68229;SDS011;55048;52.220;5.160;2022-12-22T03:14:16;99.68;;;28.83;;
68229;SDS011;55048;52.220;5.160;2022-12-22T03:17:00;104.05;;;28.75;;
68229;SDS011;55048;52.220;5.160;2022-12-22T03:19:44;126.85;;;30.95;;
68229;SDS011;55048;52.220;5.160;2022-12-22T03:22:28;114.50;;;29.42;;
68229;SDS011;55048;52.220;5.160;2022-12-22T03:25:12;119.40;;;30.60;;
68229;SDS011;55048;52.220;5.160;2022-12-22T03:28:02;129.50;;;31.40;;
68229;SDS011;55048;52.220;5.160;2022-12-22T03:30:29;116.07;;;30.38;;
68229;SDS011;55048;52.220;5.160;2022-12-22T03:32:55;145.80;;;31.67;;
68229;SDS011;55048;52.220;5.160;2022-12-22T03:35:21;122.28;;;31.02;;
68229;SDS011;55048;52.220;5.160;2022-12-22T03:37:46;141.32;;;31.10;;
68229;SDS011;55048;52.220;5.160;2022-12-22T03:40:12;131.55;;;31.15;;
68229;SDS011;55048;52.220;5.160;2022-12-22T03:42:37;147.15;;;33.95;;
68229;SDS011;55048;52.220;5.160;2022-12-22T03:45:21;174.82;;;33.75;;
68229;SDS011;55048;52.220;5.160;2022-12-22T03:48:05;151.88;;;33.17;;
68229;SDS011;55048;52.220;5.160;2022-12-22T03:50:30;169.02;;;34.83;;
68229;SDS011;55048;52.220;5.160;2022-12-22T03:52:56;220.30;;;33.05;;
68229;SDS011;55048;52.220;5.160;2022-12-22T03:55:21;165.32;;;31.95;;
68229;SDS011;55048;52.220;5.160;2022-12-22T03:57:47;204.70;;;35.10;;
68229;SDS011;55048;52.220;5.160;2022-12-22T04:00:12;232.10;;;33.60;;
68229;SDS011;55048;52.220;5.160;2022-12-22T04:02:38;186.80;;;35.78;;
68229;SDS011;55048;52.220;5.160;2022-12-22T04:05:03;210.52;;;35.83;;
68229;SDS011;55048;52.220;5.160;2022-12-22T04:07:29;258.55;;;35.83;;
68229;SDS011;55048;52.220;5.160;2022-12-22T04:09:55;247.45;;;35.38;;
68229;SDS011;55048;52.220;5.160;2022-12-22T04:12:39;246.52;;;35.33;;
68229;SDS011;55048;52.220;5.160;2022-12-22T04:15:23;227.10;;;33.38;;
68229;SDS011;55048;52.220;5.160;2022-12-22T04:17:51;288.85;;;37.05;;
68229;SDS011;55048;52.220;5.160;2022-12-22T04:20:17;250.07;;;34.35;;
68229;SDS011;55048;52.220;5.160;2022-12-22T04:22:44;182.75;;;29.75;;
68229;SDS011;55048;52.220;5.160;2022-12-22T04:25:09;295.23;;;35.35;;
68229;SDS011;55048;52.220;5.160;2022-12-22T04:27:35;287.73;;;34.65;;
68229;SDS011;55048;52.220;5.160;2022-12-22T04:30:01;406.20;;;39.45;;
68229;SDS011;55048;52.220;5.160;2022-12-22T04:32:26;218.88;;;34.85;;
68229;SDS011;55048;52.220;5.160;2022-12-22T04:34:52;295.88;;;34.92;;
68229;SDS011;55048;52.220;5.160;2022-12-22T04:37:17;324.63;;;36.20;;
68229;SDS011;55048;52.220;5.160;2022-12-22T04:39:43;280.15;;;35.30;;
68229;SDS011;55048;52.220;5.160;2022-12-22T04:42:09;261.85;;;34.92;;
68229;SDS011;55048;52.220;5.160;2022-12-22T04:44:34;292.30;;;37.72;;
68229;SDS011;55048;52.220;5.160;2022-12-22T04:46:59;291.30;;;35.50;;
68229;SDS011;55048;52.220;5.160;2022-12-22T04:49:25;214.07;;;33.15;;
68229;SDS011;55048;52.220;5.160;2022-12-22T04:51:50;209.38;;;30.70;;
68229;SDS011;55048;52.220;5.160;2022-12-22T04:54:15;387.92;;;36.45;;
68229;SDS011;55048;52.220;5.160;2022-12-22T04:56:41;173.15;;;29.40;;
68229;SDS011;55048;52.220;5.160;2022-12-22T04:59:06;177.48;;;27.90;;
68229;SDS011;55048;52.220;5.160;2022-12-22T05:01:31;191.98;;;29.48;;
68229;SDS011;55048;52.220;5.160;2022-12-22T05:03:57;106.80;;;25.73;;
68229;SDS011;55048;52.220;5.160;2022-12-22T05:06:22;156.75;;;27.60;;
68229;SDS011;55048;52.220;5.160;2022-12-22T05:08:48;106.63;;;26.00;;
68229;SDS011;55048;52.220;5.160;2022-12-22T05:11:13;114.88;;;26.10;;
68229;SDS011;55048;52.220;5.160;2022-12-22T05:13:38;123.55;;;25.55;;
68229;SDS011;55048;52.220;5.160;2022-12-22T05:16:05;92.50;;;24.38;;
68229;SDS011;55048;52.220;5.160;2022-12-22T05:18:32;115.63;;;24.13;;
68229;SDS011;55048;52.220;5.160;2022-12-22T05:21:01;211.80;;;28.50;;
68229;SDS011;55048;52.220;5.160;2022-12-22T05:23:28;167.07;;;26.63;;
68229;SDS011;55048;52.220;5.160;2022-12-22T05:25:53;157.82;;;28.50;;
68229;SDS011;55048;52.220;5.160;2022-12-22T05:28:19;193.98;;;28.15;;
68229;SDS011;55048;52.220;5.160;2022-12-22T05:30:44;202.23;;;29.67;;
68229;SDS011;55048;52.220;5.160;2022-12-22T05:33:10;234.90;;;29.80;;
68229;SDS011;55048;52.220;5.160;2022-12-22T05:35:35;341.70;;;34.88;;
68229;SDS011;55048;52.220;5.160;2022-12-22T05:38:00;287.15;;;32.95;;
68229;SDS011;55048;52.220;5.160;2022-12-22T05:40:26;357.52;;;35.63;;
68229;SDS011;55048;52.220;5.160;2022-12-22T05:42:51;254.25;;;33.75;;
68229;SDS011;55048;52.220;5.160;2022-12-22T05:45:17;203.43;;;31.40;;
68229;SDS011;55048;52.220;5.160;2022-12-22T05:47:46;159.95;;;32.00;;
68229;SDS011;55048;52.220;5.160;2022-12-22T05:50:14;170.18;;;33.10;;
68229;SDS011;55048;52.220;5.160;2022-12-22T05:52:42;175.05;;;31.77;;
68229;SDS011;55048;52.220;5.160;2022-12-22T05:55:08;192.40;;;32.35;;
68229;SDS011;55048;52.220;5.160;2022-12-22T05:57:34;176.68;;;31.13;;
68229;SDS011;55048;52.220;5.160;2022-12-22T06:00:00;165.45;;;31.65;;
68229;SDS011;55048;52.220;5.160;2022-12-22T06:02:26;189.95;;;32.25;;
68229;SDS011;55048;52.220;5.160;2022-12-22T06:04:51;179.68;;;31.67;;
68229;SDS011;55048;52.220;5.160;2022-12-22T06:07:17;172.25;;;32.05;;
68229;SDS011;55048;52.220;5.160;2022-12-22T06:09:42;158.82;;;29.65;;
68229;SDS011;55048;52.220;5.160;2022-12-22T06:12:08;153.45;;;29.20;;
68229;SDS011;55048;52.220;5.160;2022-12-22T06:14:33;139.38;;;28.15;;
68229;SDS011;55048;52.220;5.160;2022-12-22T06:16:59;129.60;;;25.98;;
68229;SDS011;55048;52.220;5.160;2022-12-22T06:19:24;135.93;;;27.58;;
68229;SDS011;55048;52.220;5.160;2022-12-22T06:21:49;116.55;;;22.13;;
68229;SDS011;55048;52.220;5.160;2022-12-22T06:24:15;103.53;;;20.08;;
68229;SDS011;55048;52.220;5.160;2022-12-22T06:26:40;116.47;;;22.52;;
68229;SDS011;55048;52.220;5.160;2022-12-22T06:29:06;121.20;;;18.80;;
68229;SDS011;55048;52.220;5.160;2022-12-22T06:31:31;150.27;;;20.45;;
68229;SDS011;55048;52.220;5.160;2022-12-22T06:33:57;97.00;;;14.02;;
68229;SDS011;55048;52.220;5.160;2022-12-22T06:36:22;198.70;;;17.58;;
68229;SDS011;55048;52.220;5.160;2022-12-22T06:38:47;201.38;;;13.88;;
68229;SDS011;55048;52.220;5.160;2022-12-22T06:41:13;250.00;;;15.05;;
68229;SDS011;55048;52.220;5.160;2022-12-22T06:43:39;331.02;;;18.48;;
68229;SDS011;55048;52.220;5.160;2022-12-22T06:46:04;352.30;;;17.08;;
68229;SDS011;55048;52.220;5.160;2022-12-22T06:48:30;293.92;;;18.30;;
68229;SDS011;55048;52.220;5.160;2022-12-22T06:50:58;390.25;;;17.02;;
68229;SDS011;55048;52.220;5.160;2022-12-22T06:53:24;273.45;;;18.75;;
68229;SDS011;55048;52.220;5.160;2022-12-22T06:55:50;400.50;;;21.17;;
68229;SDS011;55048;52.220;5.160;2022-12-22T06:58:15;297.00;;;14.73;;
68229;SDS011;55048;52.220;5.160;2022-12-22T07:00:41;175.15;;;10.00;;
68229;SDS011;55048;52.220;5.160;2022-12-22T07:03:07;409.23;;;19.75;;
68229;SDS011;55048;52.220;5.160;2022-12-22T07:05:33;388.60;;;18.50;;
68229;SDS011;55048;52.220;5.160;2022-12-22T07:07:58;443.50;;;19.27;;
68229;SDS011;55048;52.220;5.160;2022-12-22T07:10:23;451.15;;;19.15;;
68229;SDS011;55048;52.220;5.160;2022-12-22T07:13:09;327.98;;;16.98;;
68229;SDS011;55048;52.220;5.160;2022-12-22T07:15:44;291.48;;;19.58;;
68229;SDS011;55048;52.220;5.160;2022-12-22T07:18:12;282.23;;;17.63;;
68229;SDS011;55048;52.220;5.160;2022-12-22T07:20:38;322.83;;;21.13;;
68229;SDS011;55048;52.220;5.160;2022-12-22T07:23:03;144.60;;;17.92;;
68229;SDS011;55048;52.220;5.160;2022-12-22T07:25:29;172.82;;;20.05;;
68229;SDS011;55048;52.220;5.160;2022-12-22T07:27:54;170.73;;;18.65;;
68229;SDS011;55048;52.220;5.160;2022-12-22T07:30:20;105.43;;;15.60;;
68229;SDS011;55048;52.220;5.160;2022-12-22T07:32:45;96.00;;;15.48;;
68229;SDS011;55048;52.220;5.160;2022-12-22T07:35:10;104.10;;;14.48;;
68229;SDS011;55048;52.220;5.160;2022-12-22T07:37:36;73.20;;;13.75;;
68229;SDS011;55048;52.220;5.160;2022-12-22T07:40:01;90.65;;;15.75;;
68229;SDS011;55048;52.220;5.160;2022-12-22T07:42:30;99.25;;;16.90;;
68229;SDS011;55048;52.220;5.160;2022-12-22T07:45:14;86.93;;;15.20;;
68229;SDS011;55048;52.220;5.160;2022-12-22T07:47:41;83.47;;;14.63;;
68229;SDS011;55048;52.220;5.160;2022-12-22T07:50:09;44.08;;;11.10;;
68229;SDS011;55048;52.220;5.160;2022-12-22T07:52:55;79.75;;;12.68;;
68229;SDS011;55048;52.220;5.160;2022-12-22T07:55:26;55.92;;;11.30;;
68229;SDS011;55048;52.220;5.160;2022-12-22T07:57:53;66.90;;;13.02;;
68229;SDS011;55048;52.220;5.160;2022-12-22T08:00:19;87.97;;;14.60;;
68229;SDS011;55048;52.220;5.160;2022-12-22T08:02:48;76.32;;;13.40;;
68229;SDS011;55048;52.220;5.160;2022-12-22T08:05:15;73.70;;;13.35;;
68229;SDS011;55048;52.220;5.160;2022-12-22T08:07:40;76.95;;;13.35;;
68229;SDS011;55048;52.220;5.160;2022-12-22T08:10:06;88.18;;;13.70;;
68229;SDS011;55048;52.220;5.160;2022-12-22T08:12:32;106.80;;;13.00;;
68229;SDS011;55048;52.220;5.160;2022-12-22T08:14:57;90.40;;;12.25;;
68229;SDS011;55048;52.220;5.160;2022-12-22T08:17:25;84.70;;;12.18;;
68229;SDS011;55048;52.220;5.160;2022-12-22T08:19:51;124.60;;;12.10;;
68229;SDS011;55048;52.220;5.160;2022-12-22T08:22:17;110.57;;;8.50;;
68229;SDS011;55048;52.220;5.160;2022-12-22T08:24:42;112.85;;;9.85;;
68229;SDS011;55048;52.220;5.160;2022-12-22T08:27:10;98.63;;;7.80;;
68229;SDS011;55048;52.220;5.160;2022-12-22T08:29:39;78.45;;;7.05;;
68229;SDS011;55048;52.220;5.160;2022-12-22T08:32:09;172.88;;;8.10;;
68229;SDS011;55048;52.220;5.160;2022-12-22T08:34:36;80.70;;;10.23;;
68229;SDS011;55048;52.220;5.160;2022-12-22T08:37:03;104.78;;;7.40;;
68229;SDS011;55048;52.220;5.160;2022-12-22T08:39:32;89.63;;;7.50;;
68229;SDS011;55048;52.220;5.160;2022-12-22T08:42:05;87.45;;;7.32;;
68229;SDS011;55048;52.220;5.160;2022-12-22T08:44:33;94.63;;;6.85;;
68229;SDS011;55048;52.220;5.160;2022-12-22T08:49:28;219.20;;;9.18;;
68229;SDS011;55048;52.220;5.160;2022-12-22T08:51:54;174.50;;;9.27;;
68229;SDS011;55048;52.220;5.160;2022-12-22T08:54:19;166.02;;;7.88;;
68229;SDS011;55048;52.220;5.160;2022-12-22T08:56:45;164.55;;;8.93;;
68229;SDS011;55048;52.220;5.160;2022-12-22T08:59:11;128.95;;;9.60;;
68229;SDS011;55048;52.220;5.160;2022-12-22T09:01:38;164.43;;;8.20;;
68229;SDS011;55048;52.220;5.160;2022-12-22T09:04:06;118.32;;;7.03;;
68229;SDS011;55048;52.220;5.160;2022-12-22T09:06:32;369.50;;;16.35;;
68229;SDS011;55048;52.220;5.160;2022-12-22T09:08:58;222.10;;;9.35;;
68229;SDS011;55048;52.220;5.160;2022-12-22T09:11:25;137.68;;;7.95;;
68229;SDS011;55048;52.220;5.160;2022-12-22T09:13:52;147.85;;;8.27;;
68229;SDS011;55048;52.220;5.160;2022-12-22T09:16:20;100.13;;;6.22;;
68229;SDS011;55048;52.220;5.160;2022-12-22T09:18:47;92.40;;;6.35;;
68229;SDS011;55048;52.220;5.160;2022-12-22T09:21:12;73.53;;;6.80;;
68229;SDS011;55048;52.220;5.160;2022-12-22T09:23:38;81.32;;;6.60;;
68229;SDS011;55048;52.220;5.160;2022-12-22T09:26:07;71.82;;;6.72;;
68229;SDS011;55048;52.220;5.160;2022-12-22T09:28:34;52.45;;;5.72;;
68229;SDS011;55048;52.220;5.160;2022-12-22T09:31:00;98.60;;;7.38;;
68229;SDS011;55048;52.220;5.160;2022-12-22T09:33:26;86.40;;;5.80;;
68229;SDS011;55048;52.220;5.160;2022-12-22T09:35:51;58.28;;;6.95;;
68229;SDS011;55048;52.220;5.160;2022-12-22T09:38:17;56.67;;;8.15;;
68229;SDS011;55048;52.220;5.160;2022-12-22T09:40:42;38.75;;;6.45;;
68229;SDS011;55048;52.220;5.160;2022-12-22T09:43:14;21.95;;;5.00;;
68229;SDS011;55048;52.220;5.160;2022-12-22T09:45:42;34.40;;;6.03;;
68229;SDS011;55048;52.220;5.160;2022-12-22T09:48:12;41.35;;;6.07;;
68229;SDS011;55048;52.220;5.160;2022-12-22T09:50:39;35.83;;;5.22;;
68229;SDS011;55048;52.220;5.160;2022-12-22T09:53:06;31.25;;;6.90;;
68229;SDS011;55048;52.220;5.160;2022-12-22T09:55:41;63.33;;;8.45;;
68229;SDS011;55048;52.220;5.160;2022-12-22T09:58:16;53.60;;;8.00;;
68229;SDS011;55048;52.220;5.160;2022-12-22T10:00:49;42.35;;;7.35;;
68229;SDS011;55048;52.220;5.160;2022-12-22T10:04:01;37.63;;;7.97;;
68229;SDS011;55048;52.220;5.160;2022-12-22T10:09:19;20.45;;;8.10;;
68229;SDS011;55048;52.220;5.160;2022-12-22T10:11:53;16.40;;;6.20;;
68229;SDS011;55048;52.220;5.160;2022-12-22T10:14:20;20.83;;;7.47;;
68229;SDS011;55048;52.220;5.160;2022-12-22T10:17:03;19.83;;;6.93;;
68229;SDS011;55048;52.220;5.160;2022-12-22T10:19:38;15.55;;;5.85;;
68229;SDS011;55048;52.220;5.160;2022-12-22T10:22:16;13.32;;;5.25;;
68229;SDS011;55048;52.220;5.160;2022-12-22T10:24:51;14.73;;;5.88;;
68229;SDS011;55048;52.220;5.160;2022-12-22T10:27:17;21.88;;;6.13;;
68229;SDS011;55048;52.220;5.160;2022-12-22T10:29:43;16.27;;;5.35;;
68229;SDS011;55048;52.220;5.160;2022-12-22T10:32:13;16.55;;;5.35;;
68229;SDS011;55048;52.220;5.160;2022-12-22T10:35:00;13.93;;;5.25;;
68229;SDS011;55048;52.220;5.160;2022-12-22T10:37:32;16.27;;;5.85;;
68229;SDS011;55048;52.220;5.160;2022-12-22T10:40:12;17.60;;;6.30;;
68229;SDS011;55048;52.220;5.160;2022-12-22T10:42:42;17.73;;;5.57;;
68229;SDS011;55048;52.220;5.160;2022-12-22T10:45:15;13.50;;;5.63;;
68229;SDS011;55048;52.220;5.160;2022-12-22T10:47:45;12.77;;;4.30;;
68229;SDS011;55048;52.220;5.160;2022-12-22T10:50:13;19.15;;;5.07;;
68229;SDS011;55048;52.220;5.160;2022-12-22T10:52:38;12.18;;;3.25;;
68229;SDS011;55048;52.220;5.160;2022-12-22T10:57:40;12.35;;;3.15;;
68229;SDS011;55048;52.220;5.160;2022-12-22T11:00:21;10.73;;;3.25;;
68229;SDS011;55048;52.220;5.160;2022-12-22T11:02:49;12.48;;;3.03;;
68229;SDS011;55048;52.220;5.160;2022-12-22T11:05:17;13.27;;;3.75;;
68229;SDS011;55048;52.220;5.160;2022-12-22T11:07:43;11.35;;;2.80;;
68229;SDS011;55048;52.220;5.160;2022-12-22T11:10:15;10.32;;;3.13;;
68229;SDS011;55048;52.220;5.160;2022-12-22T11:21:34;6.85;;;2.35;;
68229;SDS011;55048;52.220;5.160;2022-12-22T11:35:29;11.80;;;2.35;;
68229;SDS011;55048;52.220;5.160;2022-12-22T11:41:18;6.80;;;1.90;;
68229;SDS011;55048;52.220;5.160;2022-12-22T11:46:31;9.85;;;2.58;;
68229;SDS011;55048;52.220;5.160;2022-12-22T12:00:21;14.18;;;2.58;;
68229;SDS011;55048;52.220;5.160;2022-12-22T12:06:02;5.40;;;2.33;;
68229;SDS011;55048;52.220;5.160;2022-12-22T12:08:46;8.50;;;2.53;;
68229;SDS011;55048;52.220;5.160;2022-12-22T12:11:29;10.47;;;2.30;;
68229;SDS011;55048;52.220;5.160;2022-12-22T12:30:13;14.35;;;3.30;;
68229;SDS011;55048;52.220;5.160;2022-12-22T12:35:45;10.30;;;3.15;;
68229;SDS011;55048;52.220;5.160;2022-12-22T12:41:12;6.80;;;3.15;;
68229;SDS011;55048;52.220;5.160;2022-12-22T12:43:56;12.77;;;4.20;;
68229;SDS011;55048;52.220;5.160;2022-12-22T12:52:00;16.00;;;7.07;;
68229;SDS011;55048;52.220;5.160;2022-12-22T13:05:00;16.25;;;7.70;;
68229;SDS011;55048;52.220;5.160;2022-12-22T13:10:31;13.82;;;6.65;;
68229;SDS011;55048;52.220;5.160;2022-12-22T13:12:58;12.98;;;6.72;;
68229;SDS011;55048;52.220;5.160;2022-12-22T13:15:31;13.82;;;7.60;;
68229;SDS011;55048;52.220;5.160;2022-12-22T13:17:59;15.50;;;8.85;;
68229;SDS011;55048;52.220;5.160;2022-12-22T13:20:27;16.58;;;8.27;;
68229;SDS011;55048;52.220;5.160;2022-12-22T13:22:54;14.18;;;7.90;;
68229;SDS011;55048;52.220;5.160;2022-12-22T13:25:23;20.55;;;8.52;;
68229;SDS011;55048;52.220;5.160;2022-12-22T13:27:54;20.83;;;8.57;;
68229;SDS011;55048;52.220;5.160;2022-12-22T13:30:21;28.30;;;12.20;;
68229;SDS011;55048;52.220;5.160;2022-12-22T13:32:47;19.77;;;9.98;;
68229;SDS011;55048;52.220;5.160;2022-12-22T13:38:03;20.67;;;10.32;;
68229;SDS011;55048;52.220;5.160;2022-12-22T13:40:29;25.95;;;10.88;;
68229;SDS011;55048;52.220;5.160;2022-12-22T13:43:04;26.85;;;11.85;;
68229;SDS011;55048;52.220;5.160;2022-12-22T13:45:36;29.27;;;12.95;;
68229;SDS011;55048;52.220;5.160;2022-12-22T13:48:11;26.17;;;12.05;;
68229;SDS011;55048;52.220;5.160;2022-12-22T13:50:38;31.63;;;13.75;;
68229;SDS011;55048;52.220;5.160;2022-12-22T13:53:08;29.60;;;13.18;;
68229;SDS011;55048;52.220;5.160;2022-12-22T13:55:35;29.60;;;13.77;;
68229;SDS011;55048;52.220;5.160;2022-12-22T13:58:04;29.48;;;13.77;;
68229;SDS011;55048;52.220;5.160;2022-12-22T14:00:33;29.25;;;13.00;;
68229;SDS011;55048;52.220;5.160;2022-12-22T14:02:59;31.80;;;14.70;;
68229;SDS011;55048;52.220;5.160;2022-12-22T14:05:28;32.22;;;14.65;;
68229;SDS011;55048;52.220;5.160;2022-12-22T14:07:56;33.67;;;14.82;;
68229;SDS011;55048;52.220;5.160;2022-12-22T14:10:30;31.75;;;14.48;;
68229;SDS011;55048;52.220;5.160;2022-12-22T14:12:58;37.67;;;14.98;;
68229;SDS011;55048;52.220;5.160;2022-12-22T14:15:26;33.83;;;15.05;;
68229;SDS011;55048;52.220;5.160;2022-12-22T14:17:51;32.63;;;15.07;;
68229;SDS011;55048;52.220;5.160;2022-12-22T14:22:49;35.10;;;15.00;;
68229;SDS011;55048;52.220;5.160;2022-12-22T14:25:22;35.47;;;15.30;;
68229;SDS011;55048;52.220;5.160;2022-12-22T14:27:53;37.70;;;15.70;;
68229;SDS011;55048;52.220;5.160;2022-12-22T14:30:22;37.30;;;14.55;;
68229;SDS011;55048;52.220;5.160;2022-12-22T14:32:50;32.50;;;15.20;;
68229;SDS011;55048;52.220;5.160;2022-12-22T14:38:28;32.75;;;16.20;;
68229;SDS011;55048;52.220;5.160;2022-12-22T14:40:37;33.95;;;15.02;;
68229;SDS011;55048;52.220;5.160;2022-12-22T14:43:05;38.28;;;15.43;;
68229;SDS011;55048;52.220;5.160;2022-12-22T14:45:47;33.92;;;16.60;;
68229;SDS011;55048;52.220;5.160;2022-12-22T14:48:18;31.85;;;15.90;;
68229;SDS011;55048;52.220;5.160;2022-12-22T14:50:50;37.33;;;17.08;;
68229;SDS011;55048;52.220;5.160;2022-12-22T14:53:35;37.08;;;16.70;;
68229;SDS011;55048;52.220;5.160;2022-12-22T14:56:14;36.33;;;16.17;;
68229;SDS011;55048;52.220;5.160;2022-12-22T14:58:42;35.88;;;17.55;;
68229;SDS011;55048;52.220;5.160;2022-12-22T15:09:36;37.97;;;17.85;;
68229;SDS011;55048;52.220;5.160;2022-12-22T15:11:47;38.58;;;18.58;;
68229;SDS011;55048;52.220;5.160;2022-12-22T15:14:16;34.25;;;17.80;;
68229;SDS011;55048;52.220;5.160;2022-12-22T15:16:43;42.83;;;20.08;;
68229;SDS011;55048;52.220;5.160;2022-12-22T15:19:11;45.60;;;21.23;;
68229;SDS011;55048;52.220;5.160;2022-12-22T15:21:39;60.40;;;32.40;;
68229;SDS011;55048;52.220;5.160;2022-12-22T15:24:11;48.63;;;21.27;;
68229;SDS011;55048;52.220;5.160;2022-12-22T15:26:39;44.85;;;20.40;;
68229;SDS011;55048;52.220;5.160;2022-12-22T15:29:05;39.85;;;19.67;;
68229;SDS011;55048;52.220;5.160;2022-12-22T15:31:31;39.75;;;20.00;;
68229;SDS011;55048;52.220;5.160;2022-12-22T15:33:57;43.97;;;19.08;;
68229;SDS011;55048;52.220;5.160;2022-12-22T15:36:26;45.10;;;20.00;;
68229;SDS011;55048;52.220;5.160;2022-12-22T15:38:51;43.85;;;20.25;;
68229;SDS011;55048;52.220;5.160;2022-12-22T15:41:16;45.33;;;20.67;;
68229;SDS011;55048;52.220;5.160;2022-12-22T15:43:42;49.13;;;22.05;;
68229;SDS011;55048;52.220;5.160;2022-12-22T15:46:09;44.85;;;20.67;;
68229;SDS011;55048;52.220;5.160;2022-12-22T15:48:40;48.22;;;20.63;;
68229;SDS011;55048;52.220;5.160;2022-12-22T15:51:07;43.67;;;21.25;;
68229;SDS011;55048;52.220;5.160;2022-12-22T15:53:44;54.42;;;22.98;;
68229;SDS011;55048;52.220;5.160;2022-12-22T15:56:11;48.47;;;22.50;;
68229;SDS011;55048;52.220;5.160;2022-12-22T15:58:41;50.45;;;22.23;;
68229;SDS011;55048;52.220;5.160;2022-12-22T16:01:07;46.53;;;22.20;;
68229;SDS011;55048;52.220;5.160;2022-12-22T16:03:35;51.47;;;22.63;;
68229;SDS011;55048;52.220;5.160;2022-12-22T16:06:01;53.92;;;23.27;;
68229;SDS011;55048;52.220;5.160;2022-12-22T16:08:27;49.65;;;24.02;;
68229;SDS011;55048;52.220;5.160;2022-12-22T16:10:55;51.42;;;24.30;;
68229;SDS011;55048;52.220;5.160;2022-12-22T16:13:23;51.20;;;23.85;;
68229;SDS011;55048;52.220;5.160;2022-12-22T16:15:53;58.67;;;25.00;;
68229;SDS011;55048;52.220;5.160;2022-12-22T16:18:19;48.15;;;25.77;;
68229;SDS011;55048;52.220;5.160;2022-12-22T16:20:45;56.72;;;25.55;;
68229;SDS011;55048;52.220;5.160;2022-12-22T16:23:18;61.50;;;26.30;;
68229;SDS011;55048;52.220;5.160;2022-12-22T16:25:46;45.15;;;23.88;;
68229;SDS011;55048;52.220;5.160;2022-12-22T16:28:13;53.80;;;25.23;;
68229;SDS011;55048;52.220;5.160;2022-12-22T16:30:42;55.50;;;24.95;;
68229;SDS011;55048;52.220;5.160;2022-12-22T16:33:12;50.70;;;23.77;;
68229;SDS011;55048;52.220;5.160;2022-12-22T16:35:38;47.40;;;21.85;;
68229;SDS011;55048;52.220;5.160;2022-12-22T16:38:04;48.20;;;23.48;;
68229;SDS011;55048;52.220;5.160;2022-12-22T16:40:30;50.35;;;23.77;;
68229;SDS011;55048;52.220;5.160;2022-12-22T16:43:04;53.10;;;24.63;;
68229;SDS011;55048;52.220;5.160;2022-12-22T16:45:40;40.40;;;22.15;;
68229;SDS011;55048;52.220;5.160;2022-12-22T16:48:10;42.83;;;21.45;;
68229;SDS011;55048;52.220;5.160;2022-12-22T16:50:39;45.85;;;22.23;;
68229;SDS011;55048;52.220;5.160;2022-12-22T16:53:09;38.47;;;20.02;;
68229;SDS011;55048;52.220;5.160;2022-12-22T16:55:36;37.90;;;18.95;;